Time;durP1;ratioP1;P1;durP2;ratioP2;P2;SDS_P1;SDS_P2;PMS_P1;PMS_P2;Temp;Humidity;BMP_temperature;BMP_pressure;BME280_temperature;BME280_humidity;BME280_pressure;Samples;Min_cycle;Max_cycle;Signal;HPM_P1;HPM_P2
2022/04/25 00:01:13;;;;;;;18.02;9.90;;;;;;;;;;5027408;28;20049;-64
2022/04/25 00:03:39;;;;;;;10.80;6.90;;;;;;;;;;5026913;28;20383;-63
2022/04/25 00:06:05;;;;;;;13.38;9.05;;;;;;;;;;5032484;28;20044;-63
2022/04/25 00:08:31;;;;;;;20.08;9.77;;;;;;;;;;5027609;28;20559;-64
2022/04/25 00:10:57;;;;;;;15.45;9.13;;;;;;;;;;5026946;28;20053;-63
2022/04/25 00:13:24;;;;;;;18.60;9.32;;;;;;;;;;5027236;28;20041;-64
2022/04/25 00:15:50;;;;;;;15.52;9.90;;;;;;;;;;5010410;28;20048;-64
2022/04/25 00:18:16;;;;;;;16.52;9.20;;;;;;;;;;5027100;28;20120;-64
2022/04/25 00:20:42;;;;;;;14.45;10.68;;;;;;;;;;5010834;28;20180;-64
2022/04/25 00:23:08;;;;;;;14.45;9.82;;;;;;;;;;5010597;28;20041;-64
2022/04/25 00:25:35;;;;;;;17.75;10.85;;;;;;;;;;5026985;28;20037;-63
2022/04/25 00:28:02;;;;;;;13.30;9.57;;;;;;;;;;5048144;28;20564;-64
2022/04/25 00:30:28;;;;;;;18.63;11.00;;;;;;;;;;5010275;28;20142;-63
2022/04/25 00:32:58;;;;;;;18.08;10.88;;;;;;;;;;5009929;28;20044;-63
2022/04/25 00:35:24;;;;;;;15.43;11.10;;;;;;;;;;5010444;28;20564;-64
2022/04/25 00:37:51;;;;;;;11.80;8.23;;;;;;;;;;5026657;28;20040;-63
2022/04/25 00:40:21;;;;;;;15.75;8.98;;;;;;;;;;5029145;28;20049;-65
2022/04/25 00:42:48;;;;;;;11.88;8.85;;;;;;;;;;5056292;28;20045;-66
2022/04/25 00:45:14;;;;;;;16.50;10.27;;;;;;;;;;5026642;28;20052;-64
2022/04/25 00:47:41;;;;;;;17.65;9.60;;;;;;;;;;5052112;28;20120;-64
2022/04/25 00:50:09;;;;;;;15.68;9.00;;;;;;;;;;5040191;28;20049;-64
2022/04/25 00:52:35;;;;;;;15.75;9.25;;;;;;;;;;5027050;28;20187;-63
2022/04/25 00:55:02;;;;;;;14.50;9.30;;;;;;;;;;5026160;28;20041;-63
2022/04/25 00:57:29;;;;;;;16.35;9.68;;;;;;;;;;5026397;28;20095;-64
2022/04/25 00:59:57;;;;;;;19.48;10.30;;;;;;;;;;5025754;28;20041;-64
2022/04/25 01:02:24;;;;;;;17.52;10.95;;;;;;;;;;5034617;28;20053;-63
2022/04/25 01:04:50;;;;;;;16.90;9.35;;;;;;;;;;5027413;28;20053;-62
2022/04/25 01:07:18;;;;;;;15.43;9.93;;;;;;;;;;5027226;28;20526;-63
2022/04/25 01:09:50;;;;;;;15.73;9.40;;;;;;;;;;5033657;28;20171;-63
2022/04/25 01:12:16;;;;;;;12.70;6.72;;;;;;;;;;5027457;28;20044;-64
2022/04/25 01:14:42;;;;;;;16.25;9.05;;;;;;;;;;5056601;28;20113;-63
2022/04/25 01:17:09;;;;;;;12.45;7.65;;;;;;;;;;5026611;28;20053;-64
2022/04/25 01:19:35;;;;;;;11.65;8.10;;;;;;;;;;5047384;28;20111;-63
2022/04/25 01:22:13;;;;;;;12.57;8.40;;;;;;;;;;5053866;28;20045;-63
2022/04/25 01:27:24;;;;;;;15.30;9.30;;;;;;;;;;5026427;28;20049;-64
2022/04/25 01:29:52;;;;;;;17.55;8.95;;;;;;;;;;5009241;28;20042;-65
2022/04/25 01:32:19;;;;;;;15.23;8.77;;;;;;;;;;5034605;28;20547;-64
2022/04/25 01:34:45;;;;;;;15.77;8.80;;;;;;;;;;5026973;28;20034;-63
2022/04/25 01:37:12;;;;;;;17.40;8.68;;;;;;;;;;5053519;28;20056;-65
2022/04/25 01:39:39;;;;;;;16.00;8.55;;;;;;;;;;5025424;28;20276;-62
2022/04/25 01:42:07;;;;;;;14.70;9.15;;;;;;;;;;5016179;28;20061;-64
2022/04/25 01:44:33;;;;;;;12.07;9.05;;;;;;;;;;5028381;28;20045;-63
2022/04/25 01:46:59;;;;;;;14.55;9.00;;;;;;;;;;5030029;28;20052;-63
2022/04/25 01:49:25;;;;;;;14.63;7.45;;;;;;;;;;5041157;28;20033;-63
2022/04/25 01:51:52;;;;;;;15.18;7.93;;;;;;;;;;5030205;28;20549;-63
2022/04/25 01:54:24;;;;;;;16.20;9.27;;;;;;;;;;5013081;28;20045;-64
2022/04/25 01:56:50;;;;;;;13.65;8.65;;;;;;;;;;5013261;28;20037;-64
2022/04/25 01:59:16;;;;;;;13.60;8.55;;;;;;;;;;5013227;28;20458;-63
2022/04/25 02:01:43;;;;;;;13.75;7.63;;;;;;;;;;5055171;28;20127;-63
2022/04/25 02:04:09;;;;;;;14.98;9.23;;;;;;;;;;5023680;28;20045;-65
2022/04/25 02:06:35;;;;;;;15.10;8.18;;;;;;;;;;5049710;28;20426;-64
2022/04/25 02:09:01;;;;;;;15.70;9.23;;;;;;;;;;5051799;28;20045;-65
2022/04/25 02:11:28;;;;;;;17.63;7.93;;;;;;;;;;5012643;28;20444;-64
2022/04/25 02:13:54;;;;;;;13.85;8.20;;;;;;;;;;5058428;28;20380;-64
2022/04/25 02:16:24;;;;;;;16.55;8.63;;;;;;;;;;5050288;28;21762;-65
2022/04/25 02:18:51;;;;;;;13.18;8.23;;;;;;;;;;5029700;28;20466;-65
2022/04/25 02:21:17;;;;;;;13.27;8.15;;;;;;;;;;5058974;28;20045;-65
2022/04/25 02:23:43;;;;;;;13.27;9.18;;;;;;;;;;5038532;28;20372;-64
2022/04/25 02:26:10;;;;;;;15.10;8.95;;;;;;;;;;5029474;28;20030;-64
2022/04/25 02:28:37;;;;;;;12.70;8.45;;;;;;;;;;5029606;28;20075;-64
2022/04/25 02:31:04;;;;;;;15.82;8.63;;;;;;;;;;5029505;28;20049;-64
2022/04/25 02:33:30;;;;;;;12.88;8.73;;;;;;;;;;5029678;28;20446;-64
2022/04/25 02:35:56;;;;;;;12.05;8.82;;;;;;;;;;5058552;28;20511;-65
2022/04/25 02:38:25;;;;;;;9.85;6.40;;;;;;;;;;5013122;28;20033;-64
2022/04/25 02:41:08;;;;;;;13.52;8.90;;;;;;;;;;5029088;28;20049;-64
2022/04/25 02:43:35;;;;;;;16.70;8.63;;;;;;;;;;5028369;28;20061;-65
2022/04/25 02:46:03;;;;;;;15.20;8.13;;;;;;;;;;5012272;28;20045;-64
2022/04/25 02:48:30;;;;;;;12.82;8.45;;;;;;;;;;5029243;28;20120;-65
2022/04/25 02:50:57;;;;;;;10.00;6.90;;;;;;;;;;5052872;28;20102;-64
2022/04/25 02:53:24;;;;;;;9.13;6.53;;;;;;;;;;5028328;28;20114;-65
2022/04/25 02:55:51;;;;;;;13.57;7.78;;;;;;;;;;5020654;28;20125;-64
2022/04/25 02:58:17;;;;;;;12.20;7.85;;;;;;;;;;5029184;28;20056;-65
2022/04/25 03:00:45;;;;;;;11.73;6.57;;;;;;;;;;5012587;28;20041;-65
2022/04/25 03:03:12;;;;;;;12.25;6.80;;;;;;;;;;5012422;28;20080;-65
2022/04/25 03:05:38;;;;;;;15.45;8.00;;;;;;;;;;5052549;28;20037;-64
2022/04/25 03:08:04;;;;;;;13.77;7.53;;;;;;;;;;5029002;28;20048;-64
2022/04/25 03:10:30;;;;;;;12.65;7.53;;;;;;;;;;5028501;28;20513;-67
2022/04/25 03:12:56;;;;;;;14.75;7.93;;;;;;;;;;5027977;28;20037;-65
2022/04/25 03:15:23;;;;;;;14.80;7.47;;;;;;;;;;4995345;28;20199;-64
2022/04/25 03:17:49;;;;;;;13.07;7.43;;;;;;;;;;5028014;28;20046;-64
2022/04/25 03:20:18;;;;;;;13.38;6.32;;;;;;;;;;5029567;28;20072;-64
2022/04/25 03:22:44;;;;;;;14.13;7.70;;;;;;;;;;5029807;28;20042;-64
2022/04/25 03:25:11;;;;;;;14.73;7.75;;;;;;;;;;5027745;28;20041;-64
2022/04/25 03:27:37;;;;;;;12.13;8.10;;;;;;;;;;5029114;28;20077;-63
2022/04/25 03:30:03;;;;;;;13.25;8.02;;;;;;;;;;5027804;28;20049;-64
2022/04/25 03:32:29;;;;;;;13.02;7.90;;;;;;;;;;5028427;28;20033;-63
2022/04/25 03:34:56;;;;;;;14.85;8.98;;;;;;;;;;5029288;28;20049;-63
2022/04/25 03:37:23;;;;;;;12.05;8.30;;;;;;;;;;5011671;28;20439;-64
2022/04/25 03:39:50;;;;;;;16.60;8.95;;;;;;;;;;5027678;28;20045;-64
2022/04/25 03:42:16;;;;;;;16.38;9.63;;;;;;;;;;5028985;28;20553;-64
2022/04/25 03:44:42;;;;;;;14.00;8.52;;;;;;;;;;5036837;28;20037;-64
2022/04/25 03:47:08;;;;;;;19.73;10.40;;;;;;;;;;5052303;28;20049;-64
2022/04/25 03:49:34;;;;;;;14.07;9.00;;;;;;;;;;5041098;28;20046;-64
2022/04/25 03:52:01;;;;;;;15.43;9.43;;;;;;;;;;5052464;28;20049;-65
2022/04/25 03:57:14;;;;;;;13.52;10.02;;;;;;;;;;5028489;28;20115;-64
2022/04/25 03:59:40;;;;;;;14.75;9.55;;;;;;;;;;5028362;28;20463;-64
2022/04/25 04:02:06;;;;;;;11.70;8.88;;;;;;;;;;5027567;28;20132;-64
2022/04/25 04:04:33;;;;;;;15.98;8.57;;;;;;;;;;5028793;28;20044;-64
2022/04/25 04:06:59;;;;;;;12.85;8.48;;;;;;;;;;5027493;28;20054;-64
2022/04/25 04:12:10;;;;;;;12.20;8.07;;;;;;;;;;5026685;28;20077;-64
2022/04/25 04:14:36;;;;;;;12.55;7.88;;;;;;;;;;5052195;28;20041;-65
2022/04/25 04:17:07;;;;;;;14.50;8.63;;;;;;;;;;5033884;28;20436;-65
2022/04/25 04:19:36;;;;;;;16.17;9.20;;;;;;;;;;5019557;28;20084;-65
2022/04/25 04:22:03;;;;;;;15.48;8.85;;;;;;;;;;5026588;28;20208;-64
2022/04/25 04:24:31;;;;;;;14.95;8.23;;;;;;;;;;5028155;28;20155;-64
2022/04/25 04:27:01;;;;;;;17.00;10.02;;;;;;;;;;5028054;28;20187;-66
2022/04/25 04:29:31;;;;;;;12.40;7.53;;;;;;;;;;5026708;28;20119;-64
2022/04/25 04:31:58;;;;;;;13.05;8.18;;;;;;;;;;5026861;28;20067;-65
2022/04/25 04:34:26;;;;;;;12.15;8.65;;;;;;;;;;5027644;28;20139;-63
2022/04/25 04:36:52;;;;;;;15.52;8.43;;;;;;;;;;5028149;28;20044;-65
2022/04/25 04:39:18;;;;;;;15.75;9.77;;;;;;;;;;5034410;28;20183;-64
2022/04/25 04:41:45;;;;;;;13.85;9.32;;;;;;;;;;5027743;28;20635;-63
2022/04/25 04:44:11;;;;;;;16.17;10.90;;;;;;;;;;5028080;28;20057;-65
2022/04/25 04:46:37;;;;;;;15.02;9.82;;;;;;;;;;5010185;28;20045;-64
2022/04/25 04:49:03;;;;;;;14.27;9.60;;;;;;;;;;5026332;28;20074;-65
2022/04/25 04:51:30;;;;;;;12.85;10.18;;;;;;;;;;5025332;28;20537;-63
2022/04/25 04:53:59;;;;;;;10.68;7.00;;;;;;;;;;5026240;28;20068;-64
2022/04/25 04:56:26;;;;;;;9.20;6.10;;;;;;;;;;5026126;28;20045;-63
2022/04/25 04:58:53;;;;;;;13.43;9.55;;;;;;;;;;5009745;28;20045;-63
2022/04/25 05:01:19;;;;;;;13.25;9.13;;;;;;;;;;5009322;28;20123;-65
2022/04/25 05:03:45;;;;;;;9.43;5.80;;;;;;;;;;5009057;28;20503;-64
2022/04/25 05:06:12;;;;;;;15.88;8.38;;;;;;;;;;5026606;28;20442;-64
2022/04/25 05:08:38;;;;;;;14.02;9.65;;;;;;;;;;5025852;28;20053;-65
2022/04/25 05:11:05;;;;;;;16.60;9.43;;;;;;;;;;5027424;28;20088;-65
2022/04/25 05:13:31;;;;;;;12.48;8.18;;;;;;;;;;5028082;28;20037;-61
2022/04/25 05:16:00;;;;;;;10.55;7.28;;;;;;;;;;5010751;28;20177;-63
2022/04/25 05:18:27;;;;;;;13.75;10.05;;;;;;;;;;5029071;28;20108;-63
2022/04/25 05:20:53;;;;;;;13.20;8.38;;;;;;;;;;5033141;28;20037;-63
2022/04/25 05:23:19;;;;;;;11.63;8.18;;;;;;;;;;5029677;28;20042;-62
2022/04/25 05:25:45;;;;;;;13.80;9.80;;;;;;;;;;5027764;28;20123;-63
2022/04/25 05:28:11;;;;;;;10.95;9.55;;;;;;;;;;5051352;28;20061;-63
2022/04/25 05:30:37;;;;;;;12.30;9.23;;;;;;;;;;5054735;28;20068;-64
2022/04/25 05:33:04;;;;;;;12.63;9.65;;;;;;;;;;5026219;28;20167;-64
2022/04/25 05:35:31;;;;;;;11.10;9.95;;;;;;;;;;5033914;28;20045;-64
2022/04/25 05:37:57;;;;;;;14.98;9.55;;;;;;;;;;5027198;28;20061;-64
2022/04/25 05:40:24;;;;;;;20.45;10.70;;;;;;;;;;5026020;28;20213;-64
2022/04/25 05:42:50;;;;;;;15.50;10.02;;;;;;;;;;5025690;28;20753;-63
2022/04/25 05:45:18;;;;;;;16.27;9.00;;;;;;;;;;5026448;28;20061;-63
2022/04/25 05:47:44;;;;;;;13.88;10.38;;;;;;;;;;5025313;28;20057;-64
2022/04/25 05:52:57;;;;;;;14.82;10.13;;;;;;;;;;5050291;28;20045;-63
2022/04/25 05:55:23;;;;;;;15.77;10.13;;;;;;;;;;5027025;28;20036;-64
2022/04/25 05:57:50;;;;;;;17.33;9.77;;;;;;;;;;5022714;28;20736;-63
2022/04/25 06:00:17;;;;;;;15.02;10.30;;;;;;;;;;5030982;28;20045;-63
2022/04/25 06:02:44;;;;;;;15.07;10.82;;;;;;;;;;5050542;28;20053;-63
2022/04/25 06:05:11;;;;;;;12.75;9.40;;;;;;;;;;5024886;28;20056;-64
2022/04/25 06:07:38;;;;;;;17.20;10.43;;;;;;;;;;5025313;28;20045;-63
2022/04/25 06:10:04;;;;;;;17.55;10.57;;;;;;;;;;5025437;28;20124;-64
2022/04/25 06:12:30;;;;;;;12.93;9.13;;;;;;;;;;5027251;28;20040;-65
2022/04/25 06:14:58;;;;;;;14.18;10.27;;;;;;;;;;5026408;28;20167;-62
2022/04/25 06:17:24;;;;;;;18.17;8.80;;;;;;;;;;5025027;28;20052;-64
2022/04/25 06:19:50;;;;;;;12.02;7.30;;;;;;;;;;5026572;28;20037;-63
2022/04/25 06:22:20;;;;;;;9.52;5.40;;;;;;;;;;5025908;28;20432;-63
2022/04/25 06:24:46;;;;;;;10.55;6.57;;;;;;;;;;5025364;28;20045;-64
2022/04/25 06:27:13;;;;;;;12.05;6.95;;;;;;;;;;4990803;28;20038;-64
2022/04/25 06:29:44;;;;;;;12.73;7.20;;;;;;;;;;5017533;28;20068;-64
2022/04/25 06:32:13;;;;;;;11.48;6.55;;;;;;;;;;5025272;28;20045;-63
2022/04/25 06:34:40;;;;;;;9.82;6.00;;;;;;;;;;5063895;28;20142;-64
2022/04/25 06:37:06;;;;;;;14.98;7.00;;;;;;;;;;5031948;28;20049;-63
2022/04/25 06:39:33;;;;;;;13.90;7.47;;;;;;;;;;5013493;28;20428;-64
2022/04/25 06:41:59;;;;;;;12.27;7.32;;;;;;;;;;5031319;28;20504;-64
2022/04/25 06:44:27;;;;;;;12.02;6.18;;;;;;;;;;5029552;28;20496;-64
2022/04/25 06:46:53;;;;;;;7.65;4.00;;;;;;;;;;5031427;28;20049;-64
2022/04/25 06:49:24;;;;;;;13.35;5.30;;;;;;;;;;5027590;28;20045;-64
2022/04/25 06:51:59;;;;;;;7.10;4.10;;;;;;;;;;5011560;28;20534;-64
2022/04/25 06:54:26;;;;;;;9.85;4.40;;;;;;;;;;5029933;28;20073;-64
2022/04/25 06:56:53;;;;;;;8.73;4.68;;;;;;;;;;5058914;28;20052;-64
2022/04/25 06:59:19;;;;;;;6.95;4.20;;;;;;;;;;5028513;28;20041;-64
2022/04/25 07:01:46;;;;;;;9.40;4.25;;;;;;;;;;5029289;28;20048;-64
2022/04/25 07:04:12;;;;;;;9.25;3.75;;;;;;;;;;5028612;28;20064;-64
2022/04/25 07:06:39;;;;;;;6.50;3.05;;;;;;;;;;5030132;28;20053;-64
2022/04/25 07:09:06;;;;;;;11.25;3.65;;;;;;;;;;5028330;28;20359;-63
2022/04/25 07:11:33;;;;;;;9.35;3.58;;;;;;;;;;5029114;28;20041;-64
2022/04/25 07:13:59;;;;;;;9.23;3.83;;;;;;;;;;5029658;28;20045;-64
2022/04/25 07:16:26;;;;;;;8.30;3.63;;;;;;;;;;5011821;28;20045;-64
2022/04/25 07:18:52;;;;;;;7.38;3.70;;;;;;;;;;5028087;28;20041;-64
2022/04/25 07:29:32;;;;;;;6.20;3.50;;;;;;;;;;5027970;28;20156;-66
2022/04/25 07:31:58;;;;;;;6.60;3.53;;;;;;;;;;5029277;28;20131;-65
2022/04/25 07:34:24;;;;;;;10.07;3.35;;;;;;;;;;5012589;28;20037;-64
2022/04/25 07:36:53;;;;;;;8.25;2.88;;;;;;;;;;5028268;28;20500;-64
2022/04/25 07:39:20;;;;;;;7.10;3.03;;;;;;;;;;5032902;28;20046;-64
2022/04/25 07:41:46;;;;;;;7.18;2.95;;;;;;;;;;5045195;28;20068;-63
2022/04/25 07:44:13;;;;;;;7.95;2.70;;;;;;;;;;5038208;28;20392;-64
2022/04/25 07:46:42;;;;;;;8.00;3.15;;;;;;;;;;5042539;28;20033;-64
2022/04/25 07:49:12;;;;;;;6.45;3.10;;;;;;;;;;5017984;28;20085;-64
2022/04/25 07:51:41;;;;;;;6.72;3.30;;;;;;;;;;5010266;28;20077;-63
2022/04/25 07:54:08;;;;;;;7.90;3.20;;;;;;;;;;5036253;28;20049;-63
2022/04/25 07:56:35;;;;;;;6.80;4.10;;;;;;;;;;5028541;28;20502;-64
2022/04/25 07:59:01;;;;;;;6.03;2.75;;;;;;;;;;5012527;28;20064;-64
2022/04/25 08:01:28;;;;;;;8.20;3.47;;;;;;;;;;5029927;28;20029;-63
2022/04/25 08:03:54;;;;;;;6.97;3.15;;;;;;;;;;5028963;28;20100;-64
2022/04/25 08:06:21;;;;;;;8.15;3.13;;;;;;;;;;5028827;28;20044;-65
2022/04/25 08:08:50;;;;;;;7.93;3.17;;;;;;;;;;5028896;28;20041;-63
2022/04/25 08:11:16;;;;;;;6.82;3.13;;;;;;;;;;5042360;28;20046;-64
2022/04/25 08:19:15;;;;;;;6.10;2.83;;;;;;;;;;5013749;28;20074;-64
2022/04/25 08:21:42;;;;;;;6.55;3.03;;;;;;;;;;5012319;28;20045;-64
2022/04/25 08:24:08;;;;;;;6.78;3.40;;;;;;;;;;5028652;28;20045;-63
2022/04/25 08:26:35;;;;;;;7.65;3.00;;;;;;;;;;5028535;28;20565;-64
2022/04/25 08:29:01;;;;;;;7.82;3.70;;;;;;;;;;5045119;28;20037;-64
2022/04/25 08:31:27;;;;;;;5.30;2.72;;;;;;;;;;5028551;28;20456;-64
2022/04/25 08:33:54;;;;;;;6.97;2.90;;;;;;;;;;5028576;28;20442;-64
2022/04/25 08:36:20;;;;;;;6.35;3.00;;;;;;;;;;5028374;28;20095;-64
2022/04/25 08:38:46;;;;;;;5.40;2.45;;;;;;;;;;5011904;28;20045;-65
2022/04/25 08:41:14;;;;;;;7.82;2.45;;;;;;;;;;5028714;28;20456;-65
2022/04/25 08:43:41;;;;;;;6.63;2.67;;;;;;;;;;5061213;28;20060;-65
2022/04/25 08:46:09;;;;;;;5.28;2.55;;;;;;;;;;5028005;28;20120;-63
2022/04/25 08:48:36;;;;;;;5.78;2.65;;;;;;;;;;5028515;28;20087;-65
2022/04/25 08:51:02;;;;;;;7.05;2.83;;;;;;;;;;5029062;28;20108;-64
2022/04/25 08:53:29;;;;;;;6.15;2.55;;;;;;;;;;5010492;28;20076;-65
2022/04/25 08:55:55;;;;;;;5.55;2.97;;;;;;;;;;5027842;28;20041;-63
2022/04/25 08:58:22;;;;;;;3.70;2.53;;;;;;;;;;5028805;28;20131;-64
2022/04/25 09:00:48;;;;;;;2.70;1.88;;;;;;;;;;5029265;28;20133;-64
2022/04/25 09:03:15;;;;;;;4.88;2.22;;;;;;;;;;5028186;28;20456;-64
2022/04/25 09:05:41;;;;;;;3.80;2.38;;;;;;;;;;5059934;28;20104;-64
2022/04/25 09:08:07;;;;;;;3.75;2.25;;;;;;;;;;5042621;28;20056;-64
2022/04/25 09:10:34;;;;;;;3.97;2.35;;;;;;;;;;5028748;28;20080;-65
2022/04/25 09:13:01;;;;;;;5.95;2.63;;;;;;;;;;5028591;28;20044;-64
2022/04/25 09:15:27;;;;;;;7.10;2.80;;;;;;;;;;5029949;28;20067;-65
2022/04/25 09:17:54;;;;;;;5.97;3.60;;;;;;;;;;5012162;28;20034;-64
2022/04/25 09:20:20;;;;;;;6.13;3.10;;;;;;;;;;5012211;28;20044;-64
2022/04/25 09:22:47;;;;;;;4.82;2.30;;;;;;;;;;4996063;28;20041;-66
2022/04/25 09:25:17;;;;;;;5.78;2.60;;;;;;;;;;5012561;28;20838;-65
2022/04/25 09:27:43;;;;;;;6.20;2.83;;;;;;;;;;5010788;28;20037;-64
2022/04/25 09:30:17;;;;;;;5.45;2.45;;;;;;;;;;5028756;28;20119;-64
2022/04/25 09:32:43;;;;;;;;;;;;;;;;;;5027739;28;20160;-65
2022/04/25 09:35:28;;;;;;;3.42;2.20;;;;;;;;;;5011282;28;19972;-64
2022/04/25 09:37:54;;;;;;;7.13;2.40;;;;;;;;;;5027318;28;20037;-64
2022/04/25 09:40:24;;;;;;;4.72;2.75;;;;;;;;;;5027634;28;20428;-65
2022/04/25 09:43:11;;;;;;;6.18;2.65;;;;;;;;;;5010882;28;20052;-63
2022/04/25 09:45:40;;;;;;;3.85;2.47;;;;;;;;;;5028970;28;20046;-65
2022/04/25 09:48:13;;;;;;;7.50;2.10;;;;;;;;;;5025553;28;20156;-64
2022/04/25 09:50:39;;;;;;;3.33;2.03;;;;;;;;;;5027734;28;20041;-64
2022/04/25 09:53:06;;;;;;;2.25;1.40;;;;;;;;;;5027210;28;20045;-64
2022/04/25 09:55:34;;;;;;;2.53;1.60;;;;;;;;;;5028958;28;20040;-65
2022/04/25 09:58:22;;;;;;;1.73;1.15;;;;;;;;;;5010679;28;20037;-64
2022/04/25 10:00:53;;;;;;;2.08;1.23;;;;;;;;;;5027804;28;20130;-65
2022/04/25 10:03:32;;;;;;;1.67;0.80;;;;;;;;;;4991671;28;20064;-65
2022/04/25 10:06:02;;;;;;;2.97;1.02;;;;;;;;;;5043080;28;20103;-64
2022/04/25 10:08:28;;;;;;;3.28;1.42;;;;;;;;;;5022121;28;20091;-65
2022/04/25 10:10:56;;;;;;;3.10;0.90;;;;;;;;;;5032714;28;20052;-64
2022/04/25 10:13:22;;;;;;;3.05;1.35;;;;;;;;;;5030707;28;20048;-65
2022/04/25 10:15:48;;;;;;;3.42;1.98;;;;;;;;;;5031254;28;20037;-65
2022/04/25 10:18:15;;;;;;;2.47;1.38;;;;;;;;;;5045807;28;20056;-64
2022/04/25 10:20:42;;;;;;;1.95;1.13;;;;;;;;;;5047738;28;20514;-65
2022/04/25 10:23:12;;;;;;;2.88;1.58;;;;;;;;;;5062295;28;20389;-64
2022/04/25 10:25:40;;;;;;;3.72;1.95;;;;;;;;;;5064518;28;20444;-65
2022/04/25 10:28:12;;;;;;;4.03;1.48;;;;;;;;;;5062433;28;20053;-65
2022/04/25 10:30:40;;;;;;;3.53;1.67;;;;;;;;;;5047710;28;20045;-65
2022/04/25 10:33:20;;;;;;;3.15;1.85;;;;;;;;;;5031904;28;20037;-64
2022/04/25 10:35:47;;;;;;;3.80;1.80;;;;;;;;;;5032067;28;20045;-65
2022/04/25 10:38:47;;;;;;;2.65;1.38;;;;;;;;;;5030775;28;20045;-65
2022/04/25 10:44:33;;;;;;;3.63;1.80;;;;;;;;;;5031840;28;20053;-65
2022/04/25 10:47:06;;;;;;;3.55;1.88;;;;;;;;;;5020744;28;20140;-65
2022/04/25 10:49:35;;;;;;;3.42;1.88;;;;;;;;;;5029998;28;20053;-65
2022/04/25 10:52:02;;;;;;;1.98;1.40;;;;;;;;;;5063869;28;20447;-66
2022/04/25 10:54:28;;;;;;;3.85;1.80;;;;;;;;;;5030071;28;20056;-66
2022/04/25 10:57:14;;;;;;;2.08;1.70;;;;;;;;;;5031605;28;20036;-65
2022/04/25 10:59:40;;;;;;;2.00;1.73;;;;;;;;;;5012181;28;20038;-65
2022/04/25 11:02:24;;;;;;;2.75;1.80;;;;;;;;;;5029387;28;20099;-65
2022/04/25 11:05:09;;;;;;;2.45;1.80;;;;;;;;;;5043724;28;20068;-65
2022/04/25 11:07:40;;;;;;;2.88;1.85;;;;;;;;;;5027938;28;20099;-65
2022/04/25 11:10:06;;;;;;;3.95;1.95;;;;;;;;;;5011166;28;20450;-65
2022/04/25 11:12:52;;;;;;;4.78;1.88;;;;;;;;;;5027708;28;20400;-64
2022/04/25 11:15:37;;;;;;;4.10;1.98;;;;;;;;;;5054908;28;20431;-63
2022/04/25 11:18:27;;;;;;;2.03;1.30;;;;;;;;;;5045745;28;20048;-64
2022/04/25 11:21:23;;;;;;;3.75;1.52;;;;;;;;;;5058968;28;20116;-63
2022/04/25 11:23:52;;;;;;;3.70;2.00;;;;;;;;;;5000333;28;20065;-63
2022/04/25 11:26:21;;;;;;;2.53;1.45;;;;;;;;;;5029081;28;20120;-64
2022/04/25 11:29:11;;;;;;;4.43;1.60;;;;;;;;;;5029280;28;20049;-63
2022/04/25 11:31:38;;;;;;;2.70;1.38;;;;;;;;;;5011008;28;20556;-63
2022/04/25 11:34:07;;;;;;;4.03;1.98;;;;;;;;;;5036246;28;20057;-64
2022/04/25 11:36:43;;;;;;;3.88;1.90;;;;;;;;;;5029661;28;20090;-63
2022/04/25 11:41:58;;;;;;;5.35;2.60;;;;;;;;;;5027683;28;20064;-66
2022/04/25 11:44:24;;;;;;;3.60;2.40;;;;;;;;;;5053538;28;20365;-64
2022/04/25 11:46:51;;;;;;;3.55;2.05;;;;;;;;;;5042706;28;20049;-63
2022/04/25 11:49:35;;;;;;;4.70;2.67;;;;;;;;;;5045511;28;20045;-63
2022/04/25 11:52:01;;;;;;;5.47;2.47;;;;;;;;;;5044102;28;20368;-64
2022/04/25 11:54:32;;;;;;;6.72;3.08;;;;;;;;;;5029446;28;20566;-63
2022/04/25 11:57:01;;;;;;;4.85;2.50;;;;;;;;;;5027652;28;20067;-64
2022/04/25 11:59:28;;;;;;;6.10;2.78;;;;;;;;;;5029100;28;20045;-62
2022/04/25 12:01:55;;;;;;;5.40;2.83;;;;;;;;;;5029236;28;20033;-64
2022/04/25 12:04:21;;;;;;;5.82;2.63;;;;;;;;;;5045728;28;20072;-64
2022/04/25 12:06:47;;;;;;;4.32;2.88;;;;;;;;;;5060921;28;20048;-64
2022/04/25 12:17:42;;;;;;;5.22;2.42;;;;;;;;;;5044103;28;20424;-63
2022/04/25 12:20:09;;;;;;;4.93;3.20;;;;;;;;;;5028996;28;20519;-64
2022/04/25 12:22:36;;;;;;;5.93;2.72;;;;;;;;;;5045191;28;20045;-63
2022/04/25 12:25:15;;;;;;;4.63;3.00;;;;;;;;;;5008691;28;20137;-63
2022/04/25 12:28:03;;;;;;;4.57;2.40;;;;;;;;;;5026669;28;20045;-64
2022/04/25 12:30:30;;;;;;;5.65;2.50;;;;;;;;;;5027430;28;20085;-63
2022/04/25 12:33:09;;;;;;;5.72;3.15;;;;;;;;;;4992776;28;20038;-64
2022/04/25 12:35:38;;;;;;;3.97;2.35;;;;;;;;;;5042003;28;20396;-64
2022/04/25 12:38:05;;;;;;;5.07;3.25;;;;;;;;;;5028671;28;20111;-65
2022/04/25 12:40:32;;;;;;;3.53;2.35;;;;;;;;;;5011828;28;20051;-64
2022/04/25 12:42:59;;;;;;;4.63;2.83;;;;;;;;;;5028204;28;20427;-64
2022/04/25 12:45:25;;;;;;;4.05;2.80;;;;;;;;;;5028423;28;20476;-64
2022/04/25 12:47:55;;;;;;;5.10;3.17;;;;;;;;;;5027688;28;20059;-64
2022/04/25 12:50:53;;;;;;;4.32;3.20;;;;;;;;;;5028091;28;20045;-64
2022/04/25 12:53:38;;;;;;;4.85;3.50;;;;;;;;;;4981967;28;20511;-64
2022/04/25 12:56:04;;;;;;;4.32;3.30;;;;;;;;;;4996046;28;20041;-64
2022/04/25 12:58:34;;;;;;;4.78;2.80;;;;;;;;;;5011429;28;20491;-63
2022/04/25 13:01:00;;;;;;;5.93;3.33;;;;;;;;;;5027609;28;20052;-64
2022/04/25 13:03:26;;;;;;;3.17;2.80;;;;;;;;;;5027918;28;20045;-64
2022/04/25 13:05:53;;;;;;;4.32;3.60;;;;;;;;;;5055385;28;20137;-64
2022/04/25 13:08:25;;;;;;;7.18;3.53;;;;;;;;;;5028137;28;20052;-64
2022/04/25 13:10:51;;;;;;;4.35;3.40;;;;;;;;;;5027689;28;20042;-64
2022/04/25 13:13:19;;;;;;;5.40;3.53;;;;;;;;;;5011506;28;20056;-64
2022/04/25 13:15:47;;;;;;;4.57;3.50;;;;;;;;;;5010883;28;20499;-65
2022/04/25 13:18:13;;;;;;;3.47;2.80;;;;;;;;;;4995443;28;20038;-64
2022/04/25 13:20:39;;;;;;;5.53;3.80;;;;;;;;;;5027671;28;20506;-64
2022/04/25 13:23:07;;;;;;;4.45;3.60;;;;;;;;;;5011221;28;20041;-63
2022/04/25 13:25:33;;;;;;;5.38;3.25;;;;;;;;;;5011305;28;20053;-63
2022/04/25 13:27:59;;;;;;;6.03;4.18;;;;;;;;;;5026283;28;20049;-65
2022/04/25 13:30:26;;;;;;;5.00;3.80;;;;;;;;;;5012775;28;20529;-64
2022/04/25 13:32:53;;;;;;;4.22;3.42;;;;;;;;;;4991289;28;20026;-64
2022/04/25 13:35:22;;;;;;;5.72;3.13;;;;;;;;;;5053549;28;20052;-64
2022/04/25 13:37:48;;;;;;;4.65;3.58;;;;;;;;;;5043086;28;20045;-63
2022/04/25 13:40:15;;;;;;;3.60;2.72;;;;;;;;;;5012108;28;20124;-64
2022/04/25 13:42:44;;;;;;;7.60;3.50;;;;;;;;;;5031191;28;20071;-64
2022/04/25 13:45:12;;;;;;;5.80;3.40;;;;;;;;;;5016119;28;20519;-64
2022/04/25 13:47:40;;;;;;;6.70;3.90;;;;;;;;;;5020669;28;20053;-64
2022/04/25 13:50:06;;;;;;;4.95;3.58;;;;;;;;;;5029446;28;20045;-64
2022/04/25 13:52:32;;;;;;;4.90;3.67;;;;;;;;;;5029940;28;20041;-65
2022/04/25 13:54:58;;;;;;;4.15;2.78;;;;;;;;;;5053099;28;20084;-64
2022/04/25 13:57:24;;;;;;;3.70;3.20;;;;;;;;;;5056135;28;20048;-64
2022/04/25 13:59:50;;;;;;;4.82;3.30;;;;;;;;;;5029712;28;20073;-65
2022/04/25 14:05:01;;;;;;;5.80;3.80;;;;;;;;;;5056007;28;20322;-64
2022/04/25 14:07:27;;;;;;;3.92;3.00;;;;;;;;;;5041612;28;20037;-63
2022/04/25 14:09:54;;;;;;;4.68;3.45;;;;;;;;;;5030805;28;20563;-64
2022/04/25 14:12:20;;;;;;;3.35;2.75;;;;;;;;;;5048562;28;20037;-65
2022/04/25 14:14:46;;;;;;;4.65;3.60;;;;;;;;;;5023159;28;20034;-63
2022/04/25 14:17:12;;;;;;;4.03;3.67;;;;;;;;;;5013722;28;20068;-63
2022/04/25 14:19:38;;;;;;;4.93;3.50;;;;;;;;;;5012657;28;20526;-64
2022/04/25 14:22:04;;;;;;;4.65;3.17;;;;;;;;;;5029335;28;20128;-65
2022/04/25 14:24:30;;;;;;;4.60;3.47;;;;;;;;;;5043625;28;20077;-64
2022/04/25 14:26:56;;;;;;;4.13;3.00;;;;;;;;;;5027904;28;20119;-65
2022/04/25 14:29:22;;;;;;;5.47;3.13;;;;;;;;;;5030344;28;20112;-64
2022/04/25 14:31:49;;;;;;;4.60;2.92;;;;;;;;;;5039529;28;20053;-63
2022/04/25 14:34:15;;;;;;;4.90;2.78;;;;;;;;;;5028986;28;20099;-63
2022/04/25 14:36:41;;;;;;;5.20;2.97;;;;;;;;;;5030286;28;20080;-64
2022/04/25 14:39:10;;;;;;;5.97;3.03;;;;;;;;;;5028291;28;20391;-63
2022/04/25 14:41:36;;;;;;;6.40;2.83;;;;;;;;;;5026679;28;20045;-64
2022/04/25 14:44:02;;;;;;;5.40;2.13;;;;;;;;;;5028874;28;20530;-64
2022/04/25 14:46:29;;;;;;;4.53;2.58;;;;;;;;;;5026395;28;20346;-64
2022/04/25 14:48:56;;;;;;;5.40;2.40;;;;;;;;;;5021658;28;20040;-64
2022/04/25 14:54:22;;;;;;;7.18;2.47;;;;;;;;;;5028438;28;20046;-64
2022/04/25 14:56:52;;;;;;;5.65;2.35;;;;;;;;;;5028660;28;20069;-63
2022/04/25 14:59:20;;;;;;;5.68;1.95;;;;;;;;;;5049426;28;20116;-63
2022/04/25 15:01:48;;;;;;;4.75;1.92;;;;;;;;;;5028595;28;20041;-66
2022/04/25 15:04:14;;;;;;;6.93;1.92;;;;;;;;;;5021510;28;20124;-63
2022/04/25 15:06:40;;;;;;;5.07;1.77;;;;;;;;;;5030520;28;20037;-64
2022/04/25 15:09:06;;;;;;;6.80;1.38;;;;;;;;;;5028207;28;20053;-64
2022/04/25 15:11:33;;;;;;;6.90;2.35;;;;;;;;;;5052310;28;20120;-63
2022/04/25 15:13:59;;;;;;;8.18;1.75;;;;;;;;;;5029664;28;20490;-64
2022/04/25 15:16:26;;;;;;;8.15;1.90;;;;;;;;;;5027809;28;20069;-64
2022/04/25 15:18:52;;;;;;;7.18;2.10;;;;;;;;;;5028412;28;20486;-63
2022/04/25 15:21:18;;;;;;;4.57;1.50;;;;;;;;;;5011601;28;20114;-63
2022/04/25 15:23:44;;;;;;;4.63;1.48;;;;;;;;;;5029206;28;20038;-64
2022/04/25 15:26:10;;;;;;;5.80;1.40;;;;;;;;;;5041716;28;20045;-64